sensor_id;sensor_type;location;lat;lon;timestamp;P1;durP1;ratioP1;P2;durP2;ratioP2
9970;SDS011;5026;51.494;11.974;2024-02-26T00:02:02;5.67;;;4.17;;
9970;SDS011;5026;51.494;11.974;2024-02-26T00:04:29;6.20;;;4.10;;
9970;SDS011;5026;51.494;11.974;2024-02-26T00:06:57;6.53;;;3.93;;
9970;SDS011;5026;51.494;11.974;2024-02-26T00:09:24;5.57;;;4.07;;
9970;SDS011;5026;51.494;11.974;2024-02-26T00:11:51;4.53;;;3.67;;
9970;SDS011;5026;51.494;11.974;2024-02-26T00:14:18;6.70;;;4.90;;
9970;SDS011;5026;51.494;11.974;2024-02-26T00:16:45;6.60;;;4.40;;
9970;SDS011;5026;51.494;11.974;2024-02-26T00:19:15;5.80;;;4.30;;
9970;SDS011;5026;51.494;11.974;2024-02-26T00:21:41;7.07;;;4.47;;
9970;SDS011;5026;51.494;11.974;2024-02-26T00:24:10;6.13;;;4.67;;
9970;SDS011;5026;51.494;11.974;2024-02-26T00:26:36;7.03;;;5.37;;
9970;SDS011;5026;51.494;11.974;2024-02-26T00:29:02;7.77;;;4.93;;
9970;SDS011;5026;51.494;11.974;2024-02-26T00:31:29;8.47;;;5.20;;
9970;SDS011;5026;51.494;11.974;2024-02-26T00:33:56;9.63;;;5.30;;
9970;SDS011;5026;51.494;11.974;2024-02-26T00:36:23;6.50;;;5.27;;
9970;SDS011;5026;51.494;11.974;2024-02-26T00:38:50;6.63;;;5.23;;
9970;SDS011;5026;51.494;11.974;2024-02-26T00:41:18;7.67;;;5.43;;
9970;SDS011;5026;51.494;11.974;2024-02-26T00:43:46;9.03;;;5.23;;
9970;SDS011;5026;51.494;11.974;2024-02-26T00:46:13;9.67;;;5.83;;
9970;SDS011;5026;51.494;11.974;2024-02-26T00:48:40;7.17;;;5.10;;
9970;SDS011;5026;51.494;11.974;2024-02-26T00:51:07;9.93;;;5.07;;
9970;SDS011;5026;51.494;11.974;2024-02-26T00:53:34;8.37;;;6.67;;
9970;SDS011;5026;51.494;11.974;2024-02-26T00:56:01;9.43;;;5.80;;
9970;SDS011;5026;51.494;11.974;2024-02-26T00:58:29;9.77;;;5.67;;
9970;SDS011;5026;51.494;11.974;2024-02-26T01:00:56;8.77;;;5.57;;
9970;SDS011;5026;51.494;11.974;2024-02-26T01:03:23;6.73;;;4.80;;
9970;SDS011;5026;51.494;11.974;2024-02-26T01:05:50;6.57;;;5.43;;
9970;SDS011;5026;51.494;11.974;2024-02-26T01:08:17;7.67;;;5.00;;
9970;SDS011;5026;51.494;11.974;2024-02-26T01:10:44;8.40;;;5.43;;
9970;SDS011;5026;51.494;11.974;2024-02-26T01:13:10;6.47;;;5.10;;
9970;SDS011;5026;51.494;11.974;2024-02-26T01:15:39;9.33;;;5.60;;
9970;SDS011;5026;51.494;11.974;2024-02-26T01:18:06;8.13;;;5.33;;
9970;SDS011;5026;51.494;11.974;2024-02-26T01:20:33;9.93;;;5.43;;
9970;SDS011;5026;51.494;11.974;2024-02-26T01:23:00;12.57;;;6.07;;
9970;SDS011;5026;51.494;11.974;2024-02-26T01:25:27;12.83;;;6.70;;
9970;SDS011;5026;51.494;11.974;2024-02-26T01:27:54;11.77;;;6.47;;
9970;SDS011;5026;51.494;11.974;2024-02-26T01:30:21;8.90;;;6.33;;
9970;SDS011;5026;51.494;11.974;2024-02-26T01:32:49;9.43;;;6.50;;
9970;SDS011;5026;51.494;11.974;2024-02-26T01:35:16;10.50;;;6.83;;
9970;SDS011;5026;51.494;11.974;2024-02-26T01:37:44;11.57;;;6.80;;
9970;SDS011;5026;51.494;11.974;2024-02-26T01:40:11;10.03;;;6.97;;
9970;SDS011;5026;51.494;11.974;2024-02-26T01:42:42;11.27;;;7.30;;
9970;SDS011;5026;51.494;11.974;2024-02-26T01:45:11;10.63;;;6.40;;
9970;SDS011;5026;51.494;11.974;2024-02-26T01:47:46;14.10;;;7.67;;
9970;SDS011;5026;51.494;11.974;2024-02-26T01:50:15;14.03;;;8.00;;
9970;SDS011;5026;51.494;11.974;2024-02-26T01:52:43;11.63;;;7.70;;
9970;SDS011;5026;51.494;11.974;2024-02-26T01:55:10;10.03;;;7.20;;
9970;SDS011;5026;51.494;11.974;2024-02-26T01:57:39;12.27;;;6.93;;
9970;SDS011;5026;51.494;11.974;2024-02-26T02:00:06;10.70;;;6.70;;
9970;SDS011;5026;51.494;11.974;2024-02-26T02:02:35;10.40;;;5.90;;
9970;SDS011;5026;51.494;11.974;2024-02-26T02:05:04;8.60;;;6.10;;
9970;SDS011;5026;51.494;11.974;2024-02-26T02:07:33;11.07;;;6.60;;
9970;SDS011;5026;51.494;11.974;2024-02-26T02:10:01;10.10;;;6.33;;
9970;SDS011;5026;51.494;11.974;2024-02-26T02:12:29;7.33;;;5.40;;
9970;SDS011;5026;51.494;11.974;2024-02-26T02:14:58;9.03;;;5.87;;
9970;SDS011;5026;51.494;11.974;2024-02-26T02:17:25;9.10;;;6.03;;
9970;SDS011;5026;51.494;11.974;2024-02-26T02:19:53;7.73;;;5.70;;
9970;SDS011;5026;51.494;11.974;2024-02-26T02:22:22;10.10;;;6.60;;
9970;SDS011;5026;51.494;11.974;2024-02-26T02:24:49;10.50;;;6.10;;
9970;SDS011;5026;51.494;11.974;2024-02-26T02:27:16;7.90;;;5.60;;
9970;SDS011;5026;51.494;11.974;2024-02-26T02:29:43;9.93;;;5.57;;
9970;SDS011;5026;51.494;11.974;2024-02-26T02:32:10;6.77;;;5.27;;
9970;SDS011;5026;51.494;11.974;2024-02-26T02:34:37;6.63;;;4.80;;
9970;SDS011;5026;51.494;11.974;2024-02-26T02:37:04;9.60;;;5.20;;
9970;SDS011;5026;51.494;11.974;2024-02-26T02:39:32;7.17;;;4.73;;
9970;SDS011;5026;51.494;11.974;2024-02-26T02:41:59;6.10;;;4.97;;
9970;SDS011;5026;51.494;11.974;2024-02-26T02:44:26;8.77;;;5.63;;
9970;SDS011;5026;51.494;11.974;2024-02-26T02:46:53;6.43;;;4.80;;
9970;SDS011;5026;51.494;11.974;2024-02-26T02:49:19;8.53;;;4.70;;
9970;SDS011;5026;51.494;11.974;2024-02-26T02:51:48;6.87;;;5.07;;
9970;SDS011;5026;51.494;11.974;2024-02-26T02:54:15;9.33;;;5.57;;
9970;SDS011;5026;51.494;11.974;2024-02-26T02:56:43;6.87;;;4.30;;
9970;SDS011;5026;51.494;11.974;2024-02-26T02:59:10;10.70;;;5.10;;
9970;SDS011;5026;51.494;11.974;2024-02-26T03:01:37;7.30;;;4.27;;
9970;SDS011;5026;51.494;11.974;2024-02-26T03:04:04;6.53;;;4.20;;
9970;SDS011;5026;51.494;11.974;2024-02-26T03:06:31;5.30;;;4.20;;
9970;SDS011;5026;51.494;11.974;2024-02-26T03:08:58;5.57;;;3.93;;
9970;SDS011;5026;51.494;11.974;2024-02-26T03:11:26;7.20;;;4.60;;
9970;SDS011;5026;51.494;11.974;2024-02-26T03:13:54;6.63;;;4.17;;
9970;SDS011;5026;51.494;11.974;2024-02-26T03:16:21;5.13;;;4.10;;
9970;SDS011;5026;51.494;11.974;2024-02-26T03:18:48;6.53;;;4.60;;
9970;SDS011;5026;51.494;11.974;2024-02-26T03:21:15;5.23;;;4.13;;
9970;SDS011;5026;51.494;11.974;2024-02-26T03:23:42;5.27;;;3.53;;
9970;SDS011;5026;51.494;11.974;2024-02-26T03:26:09;6.60;;;4.23;;
9970;SDS011;5026;51.494;11.974;2024-02-26T03:28:38;5.63;;;4.07;;
9970;SDS011;5026;51.494;11.974;2024-02-26T03:31:07;6.40;;;4.43;;
9970;SDS011;5026;51.494;11.974;2024-02-26T03:33:35;6.37;;;4.50;;
9970;SDS011;5026;51.494;11.974;2024-02-26T03:36:02;6.77;;;4.50;;
9970;SDS011;5026;51.494;11.974;2024-02-26T03:38:30;8.13;;;5.20;;
9970;SDS011;5026;51.494;11.974;2024-02-26T03:40:57;8.20;;;5.00;;
9970;SDS011;5026;51.494;11.974;2024-02-26T03:43:24;8.20;;;4.87;;
9970;SDS011;5026;51.494;11.974;2024-02-26T03:45:51;8.17;;;5.20;;
9970;SDS011;5026;51.494;11.974;2024-02-26T03:48:19;8.93;;;5.70;;
9970;SDS011;5026;51.494;11.974;2024-02-26T03:50:46;7.20;;;5.17;;
9970;SDS011;5026;51.494;11.974;2024-02-26T03:53:13;12.07;;;5.73;;
9970;SDS011;5026;51.494;11.974;2024-02-26T03:55:40;8.00;;;5.83;;
9970;SDS011;5026;51.494;11.974;2024-02-26T03:58:07;11.67;;;6.07;;
9970;SDS011;5026;51.494;11.974;2024-02-26T04:00:34;9.20;;;6.57;;
9970;SDS011;5026;51.494;11.974;2024-02-26T04:03:01;12.00;;;6.93;;
9970;SDS011;5026;51.494;11.974;2024-02-26T04:05:30;12.50;;;7.17;;
9970;SDS011;5026;51.494;11.974;2024-02-26T04:07:57;11.20;;;7.77;;
9970;SDS011;5026;51.494;11.974;2024-02-26T04:10:24;12.37;;;8.47;;
9970;SDS011;5026;51.494;11.974;2024-02-26T04:12:50;16.57;;;9.13;;
9970;SDS011;5026;51.494;11.974;2024-02-26T04:15:17;14.00;;;9.50;;
9970;SDS011;5026;51.494;11.974;2024-02-26T04:17:44;19.53;;;10.00;;
9970;SDS011;5026;51.494;11.974;2024-02-26T04:20:13;14.17;;;9.23;;
9970;SDS011;5026;51.494;11.974;2024-02-26T04:22:42;15.30;;;9.67;;
9970;SDS011;5026;51.494;11.974;2024-02-26T04:25:09;16.67;;;10.30;;
9970;SDS011;5026;51.494;11.974;2024-02-26T04:27:36;18.40;;;10.57;;
9970;SDS011;5026;51.494;11.974;2024-02-26T04:30:03;17.90;;;10.83;;
9970;SDS011;5026;51.494;11.974;2024-02-26T04:32:31;18.90;;;12.17;;
9970;SDS011;5026;51.494;11.974;2024-02-26T04:34:59;20.33;;;12.03;;
9970;SDS011;5026;51.494;11.974;2024-02-26T04:37:26;17.03;;;10.60;;
9970;SDS011;5026;51.494;11.974;2024-02-26T04:39:57;16.50;;;10.77;;
9970;SDS011;5026;51.494;11.974;2024-02-26T04:42:25;20.87;;;11.97;;
9970;SDS011;5026;51.494;11.974;2024-02-26T04:44:52;20.87;;;11.87;;
9970;SDS011;5026;51.494;11.974;2024-02-26T04:47:19;22.27;;;12.17;;
9970;SDS011;5026;51.494;11.974;2024-02-26T04:49:47;21.10;;;13.13;;
9970;SDS011;5026;51.494;11.974;2024-02-26T04:52:14;20.33;;;12.47;;
9970;SDS011;5026;51.494;11.974;2024-02-26T04:54:41;25.27;;;13.50;;
9970;SDS011;5026;51.494;11.974;2024-02-26T04:57:09;26.53;;;14.83;;
9970;SDS011;5026;51.494;11.974;2024-02-26T04:59:36;24.07;;;12.93;;
9970;SDS011;5026;51.494;11.974;2024-02-26T05:02:03;24.40;;;14.73;;
9970;SDS011;5026;51.494;11.974;2024-02-26T05:04:30;27.77;;;15.70;;
9970;SDS011;5026;51.494;11.974;2024-02-26T05:06:57;29.80;;;16.10;;
9970;SDS011;5026;51.494;11.974;2024-02-26T05:09:23;30.77;;;16.53;;
9970;SDS011;5026;51.494;11.974;2024-02-26T05:11:50;29.57;;;17.03;;
9970;SDS011;5026;51.494;11.974;2024-02-26T05:14:19;29.67;;;16.83;;
9970;SDS011;5026;51.494;11.974;2024-02-26T05:16:46;32.27;;;17.37;;
9970;SDS011;5026;51.494;11.974;2024-02-26T05:19:13;31.50;;;16.67;;
9970;SDS011;5026;51.494;11.974;2024-02-26T05:21:40;30.10;;;17.33;;
9970;SDS011;5026;51.494;11.974;2024-02-26T05:24:09;32.23;;;17.33;;
9970;SDS011;5026;51.494;11.974;2024-02-26T05:26:36;31.37;;;16.73;;
9970;SDS011;5026;51.494;11.974;2024-02-26T05:29:03;34.00;;;17.23;;
9970;SDS011;5026;51.494;11.974;2024-02-26T05:31:31;37.60;;;18.27;;
9970;SDS011;5026;51.494;11.974;2024-02-26T05:33:58;37.10;;;18.37;;
9970;SDS011;5026;51.494;11.974;2024-02-26T05:36:25;31.43;;;17.63;;
9970;SDS011;5026;51.494;11.974;2024-02-26T05:38:53;32.07;;;17.80;;
9970;SDS011;5026;51.494;11.974;2024-02-26T05:41:20;32.07;;;17.37;;
9970;SDS011;5026;51.494;11.974;2024-02-26T05:43:51;34.53;;;18.97;;
9970;SDS011;5026;51.494;11.974;2024-02-26T05:46:18;31.47;;;18.07;;
9970;SDS011;5026;51.494;11.974;2024-02-26T05:48:47;37.37;;;18.90;;
9970;SDS011;5026;51.494;11.974;2024-02-26T05:51:15;36.33;;;19.80;;
9970;SDS011;5026;51.494;11.974;2024-02-26T05:53:42;39.60;;;20.40;;
9970;SDS011;5026;51.494;11.974;2024-02-26T05:56:09;40.67;;;21.27;;
9970;SDS011;5026;51.494;11.974;2024-02-26T05:58:36;41.20;;;21.60;;
9970;SDS011;5026;51.494;11.974;2024-02-26T06:01:03;41.90;;;21.70;;
9970;SDS011;5026;51.494;11.974;2024-02-26T06:03:30;40.77;;;22.13;;
9970;SDS011;5026;51.494;11.974;2024-02-26T06:05:59;43.30;;;22.73;;
9970;SDS011;5026;51.494;11.974;2024-02-26T06:08:25;41.77;;;22.23;;
9970;SDS011;5026;51.494;11.974;2024-02-26T06:10:52;47.53;;;24.40;;
9970;SDS011;5026;51.494;11.974;2024-02-26T06:13:20;50.10;;;22.73;;
9970;SDS011;5026;51.494;11.974;2024-02-26T06:15:47;43.20;;;22.67;;
9970;SDS011;5026;51.494;11.974;2024-02-26T06:18:13;36.47;;;20.60;;
9970;SDS011;5026;51.494;11.974;2024-02-26T06:20:41;37.27;;;20.07;;
9970;SDS011;5026;51.494;11.974;2024-02-26T06:23:09;37.27;;;19.67;;
9970;SDS011;5026;51.494;11.974;2024-02-26T06:25:36;35.93;;;18.90;;
9970;SDS011;5026;51.494;11.974;2024-02-26T06:28:03;40.60;;;18.40;;
9970;SDS011;5026;51.494;11.974;2024-02-26T06:30:30;33.90;;;18.50;;
9970;SDS011;5026;51.494;11.974;2024-02-26T06:32:57;36.73;;;19.63;;
9970;SDS011;5026;51.494;11.974;2024-02-26T06:35:24;37.07;;;19.70;;
9970;SDS011;5026;51.494;11.974;2024-02-26T06:37:51;38.93;;;19.67;;
9970;SDS011;5026;51.494;11.974;2024-02-26T06:40:19;32.40;;;17.93;;
9970;SDS011;5026;51.494;11.974;2024-02-26T06:42:46;32.10;;;17.77;;
9970;SDS011;5026;51.494;11.974;2024-02-26T06:45:15;32.73;;;18.20;;
9970;SDS011;5026;51.494;11.974;2024-02-26T06:47:42;32.13;;;17.73;;
9970;SDS011;5026;51.494;11.974;2024-02-26T06:50:11;37.27;;;19.03;;
9970;SDS011;5026;51.494;11.974;2024-02-26T06:52:38;31.27;;;17.53;;
9970;SDS011;5026;51.494;11.974;2024-02-26T06:55:05;33.17;;;17.43;;
9970;SDS011;5026;51.494;11.974;2024-02-26T06:57:34;35.07;;;17.97;;
9970;SDS011;5026;51.494;11.974;2024-02-26T07:00:01;33.93;;;17.90;;
9970;SDS011;5026;51.494;11.974;2024-02-26T07:02:29;32.27;;;17.63;;
9970;SDS011;5026;51.494;11.974;2024-02-26T07:04:56;30.97;;;17.73;;
9970;SDS011;5026;51.494;11.974;2024-02-26T07:07:23;33.13;;;17.67;;
9970;SDS011;5026;51.494;11.974;2024-02-26T07:09:50;27.70;;;14.27;;
9970;SDS011;5026;51.494;11.974;2024-02-26T07:12:17;23.07;;;14.17;;
9970;SDS011;5026;51.494;11.974;2024-02-26T07:14:47;23.60;;;13.13;;
9970;SDS011;5026;51.494;11.974;2024-02-26T07:17:15;23.70;;;13.73;;
9970;SDS011;5026;51.494;11.974;2024-02-26T07:19:42;25.47;;;15.13;;
9970;SDS011;5026;51.494;11.974;2024-02-26T07:22:09;23.20;;;13.97;;
9970;SDS011;5026;51.494;11.974;2024-02-26T07:24:36;24.77;;;13.53;;
9970;SDS011;5026;51.494;11.974;2024-02-26T07:27:03;24.97;;;15.20;;
9970;SDS011;5026;51.494;11.974;2024-02-26T07:29:30;21.73;;;13.20;;
9970;SDS011;5026;51.494;11.974;2024-02-26T07:31:59;27.73;;;15.40;;
9970;SDS011;5026;51.494;11.974;2024-02-26T07:34:26;24.00;;;14.60;;
9970;SDS011;5026;51.494;11.974;2024-02-26T07:36:54;23.10;;;13.63;;
9970;SDS011;5026;51.494;11.974;2024-02-26T07:39:21;28.37;;;15.33;;
9970;SDS011;5026;51.494;11.974;2024-02-26T07:41:48;23.60;;;13.80;;
9970;SDS011;5026;51.494;11.974;2024-02-26T07:44:18;27.23;;;14.33;;
9970;SDS011;5026;51.494;11.974;2024-02-26T07:46:45;24.33;;;14.00;;
9970;SDS011;5026;51.494;11.974;2024-02-26T07:49:14;26.73;;;13.83;;
9970;SDS011;5026;51.494;11.974;2024-02-26T07:51:41;28.93;;;14.77;;
9970;SDS011;5026;51.494;11.974;2024-02-26T07:54:08;21.40;;;13.00;;
9970;SDS011;5026;51.494;11.974;2024-02-26T07:56:34;23.83;;;13.63;;
9970;SDS011;5026;51.494;11.974;2024-02-26T07:59:01;24.07;;;13.83;;
9970;SDS011;5026;51.494;11.974;2024-02-26T08:01:28;21.47;;;13.13;;
9970;SDS011;5026;51.494;11.974;2024-02-26T08:03:55;22.07;;;13.13;;
9970;SDS011;5026;51.494;11.974;2024-02-26T08:06:24;19.07;;;12.07;;
9970;SDS011;5026;51.494;11.974;2024-02-26T08:08:52;23.00;;;13.33;;
9970;SDS011;5026;51.494;11.974;2024-02-26T08:11:19;18.80;;;11.70;;
9970;SDS011;5026;51.494;11.974;2024-02-26T08:13:46;18.93;;;11.73;;
9970;SDS011;5026;51.494;11.974;2024-02-26T08:16:13;17.80;;;11.87;;
9970;SDS011;5026;51.494;11.974;2024-02-26T08:18:40;19.67;;;11.73;;
9970;SDS011;5026;51.494;11.974;2024-02-26T08:21:07;19.77;;;11.33;;
9970;SDS011;5026;51.494;11.974;2024-02-26T08:23:36;18.63;;;12.00;;
9970;SDS011;5026;51.494;11.974;2024-02-26T08:26:04;20.23;;;12.50;;
9970;SDS011;5026;51.494;11.974;2024-02-26T08:28:32;20.57;;;11.60;;
9970;SDS011;5026;51.494;11.974;2024-02-26T08:30:59;18.70;;;11.73;;
9970;SDS011;5026;51.494;11.974;2024-02-26T08:33:26;22.70;;;14.13;;
9970;SDS011;5026;51.494;11.974;2024-02-26T08:35:53;19.87;;;11.87;;
9970;SDS011;5026;51.494;11.974;2024-02-26T08:38:20;23.23;;;12.40;;
9970;SDS011;5026;51.494;11.974;2024-02-26T08:40:48;20.67;;;12.60;;
9970;SDS011;5026;51.494;11.974;2024-02-26T08:43:15;22.43;;;13.07;;
9970;SDS011;5026;51.494;11.974;2024-02-26T08:45:44;19.17;;;12.30;;
9970;SDS011;5026;51.494;11.974;2024-02-26T08:48:11;20.97;;;12.13;;
9970;SDS011;5026;51.494;11.974;2024-02-26T08:50:38;23.23;;;12.37;;
9970;SDS011;5026;51.494;11.974;2024-02-26T08:53:04;20.23;;;12.83;;
9970;SDS011;5026;51.494;11.974;2024-02-26T08:55:31;22.97;;;12.70;;
9970;SDS011;5026;51.494;11.974;2024-02-26T08:57:59;24.63;;;14.70;;
9970;SDS011;5026;51.494;11.974;2024-02-26T09:00:26;24.93;;;14.00;;
9970;SDS011;5026;51.494;11.974;2024-02-26T09:02:53;21.33;;;12.50;;
9970;SDS011;5026;51.494;11.974;2024-02-26T09:05:20;20.03;;;12.23;;
9970;SDS011;5026;51.494;11.974;2024-02-26T09:07:47;23.10;;;12.87;;
9970;SDS011;5026;51.494;11.974;2024-02-26T09:10:17;20.80;;;11.97;;
9970;SDS011;5026;51.494;11.974;2024-02-26T09:12:44;18.90;;;11.73;;
9970;SDS011;5026;51.494;11.974;2024-02-26T09:15:12;20.40;;;12.57;;
9970;SDS011;5026;51.494;11.974;2024-02-26T09:17:40;24.83;;;13.27;;
9970;SDS011;5026;51.494;11.974;2024-02-26T09:20:07;20.67;;;13.40;;
9970;SDS011;5026;51.494;11.974;2024-02-26T09:22:35;21.87;;;12.80;;
9970;SDS011;5026;51.494;11.974;2024-02-26T09:25:03;23.43;;;14.20;;
9970;SDS011;5026;51.494;11.974;2024-02-26T09:27:31;20.23;;;12.23;;
9970;SDS011;5026;51.494;11.974;2024-02-26T09:29:58;18.23;;;11.17;;
9970;SDS011;5026;51.494;11.974;2024-02-26T09:32:27;15.63;;;10.70;;
9970;SDS011;5026;51.494;11.974;2024-02-26T09:34:53;18.60;;;12.17;;
9970;SDS011;5026;51.494;11.974;2024-02-26T09:37:20;16.83;;;11.60;;
9970;SDS011;5026;51.494;11.974;2024-02-26T09:39:47;16.47;;;10.13;;
9970;SDS011;5026;51.494;11.974;2024-02-26T09:42:14;17.00;;;11.30;;
9970;SDS011;5026;51.494;11.974;2024-02-26T09:44:44;15.20;;;10.73;;
9970;SDS011;5026;51.494;11.974;2024-02-26T09:47:12;17.17;;;10.80;;
9970;SDS011;5026;51.494;11.974;2024-02-26T09:49:43;16.03;;;10.00;;
9970;SDS011;5026;51.494;11.974;2024-02-26T09:52:12;16.13;;;11.33;;
9970;SDS011;5026;51.494;11.974;2024-02-26T09:54:41;15.43;;;10.40;;
9970;SDS011;5026;51.494;11.974;2024-02-26T09:57:09;16.50;;;10.47;;
9970;SDS011;5026;51.494;11.974;2024-02-26T09:59:41;17.23;;;10.10;;
9970;SDS011;5026;51.494;11.974;2024-02-26T10:02:09;18.07;;;10.37;;
9970;SDS011;5026;51.494;11.974;2024-02-26T10:04:39;17.33;;;10.07;;
9970;SDS011;5026;51.494;11.974;2024-02-26T10:07:09;15.60;;;10.17;;
9970;SDS011;5026;51.494;11.974;2024-02-26T10:09:37;17.93;;;10.00;;
9970;SDS011;5026;51.494;11.974;2024-02-26T10:12:07;16.47;;;9.83;;
9970;SDS011;5026;51.494;11.974;2024-02-26T10:14:36;13.90;;;9.00;;
9970;SDS011;5026;51.494;11.974;2024-02-26T10:17:04;14.40;;;9.70;;
9970;SDS011;5026;51.494;11.974;2024-02-26T10:19:34;11.03;;;8.43;;
9970;SDS011;5026;51.494;11.974;2024-02-26T10:22:01;17.30;;;9.10;;
9970;SDS011;5026;51.494;11.974;2024-02-26T10:24:31;13.27;;;8.87;;
9970;SDS011;5026;51.494;11.974;2024-02-26T10:26:59;13.93;;;8.37;;
9970;SDS011;5026;51.494;11.974;2024-02-26T10:29:26;11.20;;;8.27;;
9970;SDS011;5026;51.494;11.974;2024-02-26T10:31:53;12.53;;;8.63;;
9970;SDS011;5026;51.494;11.974;2024-02-26T10:34:20;12.20;;;8.20;;
9970;SDS011;5026;51.494;11.974;2024-02-26T10:36:47;14.10;;;8.63;;
9970;SDS011;5026;51.494;11.974;2024-02-26T10:39:15;13.40;;;7.87;;
9970;SDS011;5026;51.494;11.974;2024-02-26T10:41:44;11.80;;;7.93;;
9970;SDS011;5026;51.494;11.974;2024-02-26T10:44:11;13.87;;;9.07;;
9970;SDS011;5026;51.494;11.974;2024-02-26T10:46:40;12.37;;;8.80;;
9970;SDS011;5026;51.494;11.974;2024-02-26T10:49:12;14.47;;;8.67;;
9970;SDS011;5026;51.494;11.974;2024-02-26T10:51:43;12.47;;;8.07;;
9970;SDS011;5026;51.494;11.974;2024-02-26T10:54:12;14.33;;;8.83;;
9970;SDS011;5026;51.494;11.974;2024-02-26T10:56:42;17.20;;;9.10;;
9970;SDS011;5026;51.494;11.974;2024-02-26T10:59:12;12.17;;;8.33;;
9970;SDS011;5026;51.494;11.974;2024-02-26T11:01:40;10.77;;;7.80;;
9970;SDS011;5026;51.494;11.974;2024-02-26T11:04:11;10.57;;;7.80;;
9970;SDS011;5026;51.494;11.974;2024-02-26T11:06:39;14.30;;;8.37;;
9970;SDS011;5026;51.494;11.974;2024-02-26T11:09:06;15.07;;;8.30;;
9970;SDS011;5026;51.494;11.974;2024-02-26T11:11:38;10.93;;;8.47;;
9970;SDS011;5026;51.494;11.974;2024-02-26T11:14:08;14.13;;;8.20;;
9970;SDS011;5026;51.494;11.974;2024-02-26T11:16:36;12.13;;;7.73;;
9970;SDS011;5026;51.494;11.974;2024-02-26T11:19:06;10.00;;;7.63;;
9970;SDS011;5026;51.494;11.974;2024-02-26T11:21:35;12.20;;;7.90;;
9970;SDS011;5026;51.494;11.974;2024-02-26T11:24:06;9.87;;;7.60;;
9970;SDS011;5026;51.494;11.974;2024-02-26T11:26:36;12.10;;;7.73;;
9970;SDS011;5026;51.494;11.974;2024-02-26T11:29:08;11.50;;;7.80;;
9970;SDS011;5026;51.494;11.974;2024-02-26T11:31:37;14.17;;;7.60;;
9970;SDS011;5026;51.494;11.974;2024-02-26T11:34:06;12.80;;;7.87;;
9970;SDS011;5026;51.494;11.974;2024-02-26T11:36:33;11.07;;;6.90;;
9970;SDS011;5026;51.494;11.974;2024-02-26T11:39:03;11.07;;;7.23;;
9970;SDS011;5026;51.494;11.974;2024-02-26T11:41:32;10.03;;;7.30;;
9970;SDS011;5026;51.494;11.974;2024-02-26T11:44:00;11.60;;;7.80;;
9970;SDS011;5026;51.494;11.974;2024-02-26T11:46:33;11.87;;;6.80;;
9970;SDS011;5026;51.494;11.974;2024-02-26T11:51:59;9.27;;;7.17;;
9970;SDS011;5026;51.494;11.974;2024-02-26T11:54:38;11.10;;;7.03;;
9970;SDS011;5026;51.494;11.974;2024-02-26T11:57:19;13.60;;;7.30;;
9970;SDS011;5026;51.494;11.974;2024-02-26T11:59:50;11.47;;;6.83;;
9970;SDS011;5026;51.494;11.974;2024-02-26T12:05:17;8.07;;;5.77;;
9970;SDS011;5026;51.494;11.974;2024-02-26T12:07:49;9.07;;;6.13;;
9970;SDS011;5026;51.494;11.974;2024-02-26T12:10:23;9.03;;;6.13;;
9970;SDS011;5026;51.494;11.974;2024-02-26T12:12:54;7.97;;;5.50;;
9970;SDS011;5026;51.494;11.974;2024-02-26T12:15:30;9.47;;;6.53;;
9970;SDS011;5026;51.494;11.974;2024-02-26T12:18:01;9.40;;;6.33;;
9970;SDS011;5026;51.494;11.974;2024-02-26T12:20:29;11.17;;;7.27;;
9970;SDS011;5026;51.494;11.974;2024-02-26T12:22:58;20.90;;;9.10;;
9970;SDS011;5026;51.494;11.974;2024-02-26T12:25:27;8.57;;;5.80;;
9970;SDS011;5026;51.494;11.974;2024-02-26T12:27:58;11.67;;;5.73;;
9970;SDS011;5026;51.494;11.974;2024-02-26T12:30:26;9.50;;;5.77;;
9970;SDS011;5026;51.494;11.974;2024-02-26T12:32:55;8.20;;;6.20;;
9970;SDS011;5026;51.494;11.974;2024-02-26T12:35:28;8.87;;;5.73;;
9970;SDS011;5026;51.494;11.974;2024-02-26T12:37:56;10.70;;;5.70;;
9970;SDS011;5026;51.494;11.974;2024-02-26T12:40:25;8.20;;;6.00;;
9970;SDS011;5026;51.494;11.974;2024-02-26T12:42:53;9.43;;;5.37;;
9970;SDS011;5026;51.494;11.974;2024-02-26T12:45:21;8.47;;;5.33;;
9970;SDS011;5026;51.494;11.974;2024-02-26T12:47:48;10.97;;;5.80;;
9970;SDS011;5026;51.494;11.974;2024-02-26T12:50:15;8.70;;;5.57;;
9970;SDS011;5026;51.494;11.974;2024-02-26T12:52:44;7.13;;;5.40;;
9970;SDS011;5026;51.494;11.974;2024-02-26T12:55:13;9.80;;;5.77;;
9970;SDS011;5026;51.494;11.974;2024-02-26T12:57:41;9.43;;;6.00;;
9970;SDS011;5026;51.494;11.974;2024-02-26T13:00:11;9.30;;;5.70;;
9970;SDS011;5026;51.494;11.974;2024-02-26T13:02:40;9.27;;;6.20;;
9970;SDS011;5026;51.494;11.974;2024-02-26T13:05:10;10.23;;;5.97;;
9970;SDS011;5026;51.494;11.974;2024-02-26T13:07:40;7.97;;;5.60;;
9970;SDS011;5026;51.494;11.974;2024-02-26T13:10:10;7.90;;;5.47;;
9970;SDS011;5026;51.494;11.974;2024-02-26T13:12:41;12.33;;;6.90;;
9970;SDS011;5026;51.494;11.974;2024-02-26T13:15:13;11.00;;;6.80;;
9970;SDS011;5026;51.494;11.974;2024-02-26T13:17:41;11.50;;;6.63;;
9970;SDS011;5026;51.494;11.974;2024-02-26T13:20:09;11.27;;;7.87;;
9970;SDS011;5026;51.494;11.974;2024-02-26T13:22:36;12.07;;;6.70;;
9970;SDS011;5026;51.494;11.974;2024-02-26T13:25:03;9.53;;;6.20;;
9970;SDS011;5026;51.494;11.974;2024-02-26T13:27:33;8.13;;;5.70;;
9970;SDS011;5026;51.494;11.974;2024-02-26T13:30:04;7.23;;;5.80;;
9970;SDS011;5026;51.494;11.974;2024-02-26T13:32:35;6.87;;;4.90;;
9970;SDS011;5026;51.494;11.974;2024-02-26T13:35:05;8.63;;;6.10;;
9970;SDS011;5026;51.494;11.974;2024-02-26T13:37:33;8.53;;;6.07;;
9970;SDS011;5026;51.494;11.974;2024-02-26T13:40:06;7.37;;;5.17;;
9970;SDS011;5026;51.494;11.974;2024-02-26T13:42:37;7.70;;;5.40;;
9970;SDS011;5026;51.494;11.974;2024-02-26T13:45:05;9.77;;;5.60;;
9970;SDS011;5026;51.494;11.974;2024-02-26T13:47:33;8.87;;;5.90;;
9970;SDS011;5026;51.494;11.974;2024-02-26T13:50:06;9.20;;;5.87;;
9970;SDS011;5026;51.494;11.974;2024-02-26T13:52:33;11.23;;;6.40;;
9970;SDS011;5026;51.494;11.974;2024-02-26T13:55:00;7.87;;;5.80;;
9970;SDS011;5026;51.494;11.974;2024-02-26T13:57:28;62.07;;;21.00;;
9970;SDS011;5026;51.494;11.974;2024-02-26T13:59:56;133.53;;;41.47;;
9970;SDS011;5026;51.494;11.974;2024-02-26T14:02:23;7.00;;;5.50;;
9970;SDS011;5026;51.494;11.974;2024-02-26T14:04:50;10.00;;;6.57;;
9970;SDS011;5026;51.494;11.974;2024-02-26T14:07:17;9.00;;;5.77;;
9970;SDS011;5026;51.494;11.974;2024-02-26T14:09:44;11.90;;;6.43;;
9970;SDS011;5026;51.494;11.974;2024-02-26T14:12:11;9.50;;;6.50;;
9970;SDS011;5026;51.494;11.974;2024-02-26T14:14:38;11.23;;;6.77;;
9970;SDS011;5026;51.494;11.974;2024-02-26T14:17:09;9.57;;;6.70;;
9970;SDS011;5026;51.494;11.974;2024-02-26T14:19:36;11.87;;;7.90;;
9970;SDS011;5026;51.494;11.974;2024-02-26T14:22:04;10.73;;;6.93;;
9970;SDS011;5026;51.494;11.974;2024-02-26T14:24:31;11.67;;;7.93;;
9970;SDS011;5026;51.494;11.974;2024-02-26T14:26:58;13.57;;;8.47;;
9970;SDS011;5026;51.494;11.974;2024-02-26T14:29:25;16.47;;;8.97;;
9970;SDS011;5026;51.494;11.974;2024-02-26T14:31:52;13.77;;;8.10;;
9970;SDS011;5026;51.494;11.974;2024-02-26T14:34:22;12.23;;;9.03;;
9970;SDS011;5026;51.494;11.974;2024-02-26T14:36:50;10.70;;;7.67;;
9970;SDS011;5026;51.494;11.974;2024-02-26T14:39:16;11.60;;;6.87;;
9970;SDS011;5026;51.494;11.974;2024-02-26T14:41:43;10.70;;;6.87;;
9970;SDS011;5026;51.494;11.974;2024-02-26T14:44:11;10.03;;;6.30;;
9970;SDS011;5026;51.494;11.974;2024-02-26T14:46:38;9.00;;;6.30;;
9970;SDS011;5026;51.494;11.974;2024-02-26T14:49:06;12.23;;;6.43;;
9970;SDS011;5026;51.494;11.974;2024-02-26T14:51:34;11.03;;;7.20;;
9970;SDS011;5026;51.494;11.974;2024-02-26T14:54:01;8.93;;;6.40;;
9970;SDS011;5026;51.494;11.974;2024-02-26T14:56:28;9.90;;;6.60;;